createdAt,value
2022-12-24T00:01:39.794Z,78.14
2022-12-24T00:04:06.763Z,77.67
2022-12-24T00:06:33.635Z,77.30
2022-12-24T00:09:00.287Z,77.25
2022-12-24T00:11:26.865Z,76.50
2022-12-24T00:13:53.664Z,76.86
2022-12-24T00:16:20.231Z,76.63
2022-12-24T00:18:47.297Z,76.28
2022-12-24T00:21:15.200Z,76.21
2022-12-24T00:23:43.022Z,76.57
2022-12-24T00:26:09.587Z,77.35
2022-12-24T00:28:36.165Z,76.98
2022-12-24T00:31:11.437Z,76.60
2022-12-24T00:33:38.641Z,76.64
2022-12-24T00:36:06.218Z,76.83
2022-12-24T00:38:32.799Z,76.66
2022-12-24T00:41:01.773Z,77.23
2022-12-24T00:43:29.664Z,77.46
2022-12-24T00:45:57.093Z,76.82
2022-12-24T01:13:43.923Z,76.63
2022-12-24T01:16:19.897Z,76.21
2022-12-24T01:19:08.400Z,76.17
2022-12-24T01:21:35.012Z,76.60
2022-12-24T01:24:01.775Z,79.30
2022-12-24T01:26:28.339Z,79.43
2022-12-24T01:28:54.965Z,79.14
2022-12-24T01:31:21.550Z,79.73
2022-12-24T01:50:17.939Z,76.98
2022-12-24T01:52:44.659Z,78.23
2022-12-24T01:55:17.635Z,77.53
2022-12-24T01:57:53.312Z,77.69
2022-12-24T02:00:19.924Z,77.45
2022-12-24T02:02:48.630Z,76.87
2022-12-24T02:05:44.316Z,76.43
2022-12-24T02:08:11.205Z,76.41
2022-12-24T02:10:37.805Z,76.33
2022-12-24T02:13:05.454Z,76.22
2022-12-24T02:15:44.034Z,76.23
2022-12-24T02:18:30.815Z,76.22
2022-12-24T02:21:15.848Z,75.96
2022-12-24T02:24:14.827Z,75.79
2022-12-24T02:27:12.527Z,75.84
2022-12-24T02:30:07.231Z,76.85
2022-12-24T02:32:49.367Z,76.57
2022-12-24T02:35:28.101Z,76.33
2022-12-24T02:38:18.001Z,76.58
2022-12-24T02:41:11.098Z,76.99
2022-12-24T02:43:41.405Z,76.86
2022-12-24T02:46:19.050Z,76.52
2022-12-24T02:58:37.237Z,76.08
2022-12-24T03:01:22.226Z,76.62
2022-12-24T03:04:39.694Z,76.76
2022-12-24T03:07:20.803Z,77.34
2022-12-24T03:10:36.950Z,77.65
2022-12-24T03:13:10.628Z,77.07
2022-12-24T03:15:43.688Z,76.72
2022-12-24T03:24:37.632Z,77.65
2022-12-24T03:27:07.030Z,77.15
2022-12-24T03:29:34.157Z,76.95
2022-12-24T03:32:03.883Z,76.53
2022-12-24T03:34:30.859Z,76.26
2022-12-24T03:36:57.460Z,76.24
2022-12-24T03:39:42.878Z,75.96
2022-12-24T03:42:09.423Z,75.94
2022-12-24T03:44:36.248Z,75.73
2022-12-24T03:47:02.810Z,75.54
2022-12-24T03:53:11.040Z,75.95
2022-12-24T03:55:39.121Z,75.89
2022-12-24T03:58:05.844Z,76.07
2022-12-24T04:00:32.505Z,75.67
2022-12-24T04:03:01.801Z,75.69
2022-12-24T04:05:28.381Z,75.71
2022-12-24T04:24:20.999Z,74.96
2022-12-24T04:26:47.561Z,75.03
2022-12-24T04:29:14.120Z,75.84
2022-12-24T04:31:40.819Z,78.45
2022-12-24T04:34:07.380Z,77.89
2022-12-24T04:36:58.950Z,80.02
2022-12-24T04:39:25.522Z,79.14
2022-12-24T04:42:10.720Z,78.10
2022-12-24T04:44:56.191Z,77.51
2022-12-24T04:48:15.634Z,77.56
2022-12-24T04:51:19.891Z,76.93
2022-12-24T04:53:55.587Z,76.64
2022-12-24T04:56:24.733Z,76.42
2022-12-24T05:00:06.519Z,76.19
2022-12-24T05:02:33.781Z,76.01
2022-12-24T05:05:00.840Z,76.11
2022-12-24T05:32:50.518Z,75.35
2022-12-24T05:35:17.276Z,75.31
2022-12-24T05:37:43.947Z,75.44
2022-12-24T05:40:10.699Z,76.12
2022-12-24T05:42:37.219Z,78.06
2022-12-24T05:45:04.184Z,77.16
2022-12-24T05:47:30.750Z,77.07
2022-12-24T05:49:57.271Z,76.72
2022-12-24T05:52:23.951Z,76.40
2022-12-24T05:54:50.501Z,76.15
2022-12-24T05:57:17.107Z,76.16
2022-12-24T05:59:46.459Z,78.32
2022-12-24T06:02:13.090Z,78.88
2022-12-24T06:04:39.877Z,78.66
2022-12-24T06:07:06.467Z,79.03
2022-12-24T06:09:33.180Z,80.25
2022-12-24T06:11:59.718Z,79.74
2022-12-24T06:14:26.416Z,79.29
2022-12-24T06:16:53.009Z,80.30
2022-12-24T06:19:19.563Z,80.72
2022-12-24T06:24:41.978Z,78.00
2022-12-24T06:27:08.556Z,77.43
2022-12-24T06:29:50.497Z,77.22
2022-12-24T06:32:17.228Z,76.91
2022-12-24T06:34:43.744Z,76.59
2022-12-24T06:37:19.433Z,76.41
2022-12-24T07:02:56.152Z,76.33
2022-12-24T07:30:20.692Z,76.39
2022-12-24T07:32:47.548Z,76.62
2022-12-24T08:30:21.544Z,79.20
2022-12-24T09:41:48.895Z,75.83
2022-12-24T09:45:01.943Z,76.20
2022-12-24T09:47:39.591Z,75.64
2022-12-24T09:50:19.645Z,75.11
2022-12-24T09:52:48.461Z,74.82
2022-12-24T09:55:30.218Z,74.01
2022-12-24T09:57:59.762Z,74.04
2022-12-24T10:00:30.136Z,73.81
2022-12-24T10:03:02.028Z,74.31
2022-12-24T10:05:45.925Z,74.13
2022-12-24T10:10:54.556Z,73.03
2022-12-24T10:13:44.073Z,73.04
2022-12-24T10:17:01.015Z,73.18
2022-12-24T10:27:38.267Z,72.20
2022-12-24T10:32:56.077Z,72.69
2022-12-24T10:35:36.693Z,72.49
2022-12-24T10:40:43.878Z,72.70
2022-12-24T10:43:22.405Z,72.67
2022-12-24T10:46:32.013Z,72.16
2022-12-24T10:49:02.059Z,71.91
2022-12-24T10:51:43.781Z,71.52
2022-12-24T10:54:22.508Z,71.33
2022-12-24T10:56:58.164Z,71.80
2022-12-24T10:59:39.937Z,70.37
2022-12-24T11:21:42.811Z,67.62
2022-12-24T11:24:15.286Z,66.62
2022-12-24T11:26:44.174Z,65.77
2022-12-24T11:29:17.028Z,65.19
2022-12-24T11:31:55.317Z,64.84
2022-12-24T11:34:33.721Z,64.43
2022-12-24T11:37:28.165Z,63.82
2022-12-24T12:06:49.551Z,63.09
2022-12-24T12:09:27.293Z,62.93
2022-12-24T12:12:19.164Z,62.92
2022-12-24T12:14:54.081Z,63.18
2022-12-24T12:20:35.645Z,63.39
2022-12-24T12:25:37.809Z,63.01
2022-12-24T12:28:15.430Z,62.55
2022-12-24T12:30:44.519Z,62.05
2022-12-24T12:33:17.882Z,61.83
2022-12-24T12:35:45.783Z,62.52
2022-12-24T12:38:19.544Z,62.26
2022-12-24T12:40:54.910Z,62.75
2022-12-24T12:43:57.669Z,62.83
2022-12-24T12:46:51.315Z,63.46
2022-12-24T12:49:36.335Z,63.50
2022-12-24T12:52:27.737Z,64.04
2022-12-24T12:55:06.452Z,64.19
2022-12-24T12:57:37.630Z,63.43
2022-12-24T13:00:10.871Z,63.45
2022-12-24T13:03:11.343Z,64.57
2022-12-24T13:05:53.675Z,63.46
2022-12-24T13:08:35.572Z,63.46
2022-12-24T13:11:33.058Z,63.58
2022-12-24T13:14:25.800Z,63.74
2022-12-24T13:16:55.310Z,64.02
2022-12-24T13:19:38.492Z,63.35
2022-12-24T13:22:05.489Z,63.87
2022-12-24T13:24:33.637Z,63.95
2022-12-24T13:27:15.397Z,63.17
2022-12-24T13:29:43.956Z,63.16
2022-12-24T13:32:39.035Z,63.73
2022-12-24T13:35:20.883Z,63.67
2022-12-24T13:37:51.482Z,63.89
2022-12-24T13:40:27.960Z,63.91
2022-12-24T13:43:07.107Z,63.93
2022-12-24T13:45:33.809Z,64.30
2022-12-24T13:48:06.550Z,63.72
2022-12-24T13:50:40.937Z,63.03
2022-12-24T13:53:23.601Z,63.68
2022-12-24T13:55:55.395Z,63.93
2022-12-24T13:58:24.687Z,63.22
2022-12-24T14:01:11.726Z,62.42
2022-12-24T14:03:43.616Z,62.63
2022-12-24T14:06:23.484Z,62.46
2022-12-24T14:08:55.139Z,62.52
2022-12-24T14:11:24.402Z,62.61
2022-12-24T14:14:09.677Z,62.54
2022-12-24T14:16:49.795Z,62.15
2022-12-24T14:19:23.494Z,62.63
2022-12-24T14:22:05.004Z,62.74
2022-12-24T14:24:35.717Z,62.98
2022-12-24T14:27:24.767Z,62.92
2022-12-24T14:30:01.533Z,62.67
2022-12-24T14:32:39.700Z,63.47
2022-12-24T14:35:24.174Z,62.95
2022-12-24T14:38:08.102Z,64.18
2022-12-24T14:40:42.584Z,62.87
2022-12-24T14:43:18.162Z,63.93
2022-12-24T14:45:58.138Z,63.57
2022-12-24T14:48:37.385Z,62.89
2022-12-24T14:51:15.425Z,63.25
2022-12-24T14:53:54.992Z,62.95
2022-12-24T14:56:22.684Z,63.74
2022-12-24T14:58:49.901Z,65.75
2022-12-24T15:01:21.518Z,65.80
2022-12-24T15:04:01.227Z,66.42
2022-12-24T15:06:29.274Z,65.99
2022-12-24T15:08:56.437Z,66.97
2022-12-24T15:11:23.539Z,66.50
2022-12-24T15:13:53.898Z,65.44
2022-12-24T15:16:28.304Z,65.00
2022-12-24T15:18:58.783Z,64.76
2022-12-24T15:21:30.403Z,65.08
2022-12-24T15:23:57.713Z,65.14
2022-12-24T15:26:37.790Z,65.07
2022-12-24T15:29:21.081Z,64.58
2022-12-24T15:31:54.610Z,65.94
2022-12-24T15:34:38.296Z,65.61
2022-12-24T15:37:16.863Z,65.17
2022-12-24T15:39:44.620Z,65.06
2022-12-24T15:42:18.672Z,65.42
2022-12-24T15:45:05.627Z,65.50
2022-12-24T15:47:39.633Z,65.95
2022-12-24T15:50:24.826Z,66.70
2022-12-24T15:53:20.595Z,67.46
2022-12-24T15:55:43.054Z,67.59
2022-12-24T15:58:25.830Z,67.38
2022-12-24T16:01:17.639Z,67.83
2022-12-24T16:04:13.084Z,68.33
2022-12-24T16:06:57.906Z,69.34
2022-12-24T16:09:36.302Z,68.65
2022-12-24T16:12:04.159Z,68.49
2022-12-24T16:14:33.474Z,68.48
2022-12-24T16:17:00.179Z,67.93
2022-12-24T16:19:37.734Z,68.38
2022-12-24T16:22:25.110Z,68.23
2022-12-24T16:24:55.770Z,68.46
2022-12-24T16:27:22.459Z,69.62
2022-12-24T16:29:49.336Z,69.10
2022-12-24T16:32:36.538Z,69.65
2022-12-24T16:35:06.500Z,69.82
2022-12-24T16:37:33.068Z,69.96
2022-12-24T16:40:03.543Z,69.79
2022-12-24T16:42:48.765Z,70.37
2022-12-24T16:45:15.447Z,71.18
2022-12-24T16:47:43.561Z,71.44
2022-12-24T16:50:16.838Z,70.29
2022-12-24T16:52:43.504Z,69.82
2022-12-24T16:55:14.098Z,70.46
2022-12-24T16:57:42.072Z,70.20
2022-12-24T17:00:20.835Z,70.20
2022-12-24T17:02:48.971Z,70.40
2022-12-24T17:05:16.205Z,70.01
2022-12-24T17:07:43.898Z,69.73
2022-12-24T17:10:14.070Z,69.50
2022-12-24T17:12:40.957Z,69.63
2022-12-24T17:15:08.176Z,69.59
2022-12-24T17:17:35.003Z,69.38
2022-12-24T17:20:01.785Z,69.29
2022-12-24T17:22:28.410Z,69.53
2022-12-24T17:24:55.524Z,70.25
2022-12-24T17:27:22.962Z,70.32
2022-12-24T17:29:50.252Z,70.96
2022-12-24T17:32:16.801Z,70.52
2022-12-24T17:34:43.388Z,70.13
2022-12-24T17:37:09.954Z,70.24
2022-12-24T17:39:36.522Z,70.86
2022-12-24T17:44:38.530Z,71.25
2022-12-24T17:47:05.404Z,71.57
2022-12-24T17:49:52.189Z,71.61
2022-12-24T17:52:18.812Z,72.20
2022-12-24T17:54:45.395Z,71.91
2022-12-24T17:58:01.023Z,71.57
2022-12-24T18:00:52.693Z,72.33
2022-12-24T18:03:19.288Z,72.36
2022-12-24T18:05:45.986Z,71.69
2022-12-24T18:08:13.544Z,72.79
2022-12-24T18:10:40.637Z,72.34
2022-12-24T18:13:09.603Z,72.21
2022-12-24T18:18:21.551Z,71.88
2022-12-24T18:20:48.169Z,72.13
2022-12-24T18:23:14.920Z,72.21
2022-12-24T18:25:41.522Z,72.17
2022-12-24T18:28:08.080Z,72.47
2022-12-24T18:31:00.664Z,72.21
2022-12-24T18:34:10.938Z,73.27
2022-12-24T18:36:54.799Z,74.64
2022-12-24T18:39:21.834Z,73.74
2022-12-24T18:41:49.546Z,73.85
2022-12-24T18:44:22.513Z,73.23
2022-12-24T18:47:16.927Z,72.99
2022-12-24T18:49:46.076Z,73.27
2022-12-24T18:52:22.754Z,74.11
2022-12-24T18:54:53.828Z,73.33
2022-12-24T18:57:20.454Z,72.85
2022-12-24T18:59:47.039Z,73.38
2022-12-24T19:02:32.623Z,73.26
2022-12-24T19:04:59.321Z,74.75
2022-12-24T19:07:25.879Z,74.01
2022-12-24T19:09:52.463Z,73.49
2022-12-24T19:12:50.073Z,73.60
2022-12-24T19:15:44.649Z,74.50
2022-12-24T19:18:11.288Z,73.80
2022-12-24T19:20:39.747Z,74.03
2022-12-24T19:23:09.229Z,73.27
2022-12-24T19:25:36.149Z,72.96
2022-12-24T19:28:26.141Z,72.96
2022-12-24T19:31:14.595Z,73.87
2022-12-24T19:33:45.313Z,73.41
2022-12-24T19:36:15.351Z,73.63
2022-12-24T19:38:42.778Z,73.34
2022-12-24T19:45:21.591Z,73.47
2022-12-24T19:52:58.665Z,73.84
2022-12-24T19:55:25.269Z,73.86
2022-12-24T19:57:52.632Z,73.80
2022-12-24T20:03:02.802Z,73.80
2022-12-24T20:34:51.265Z,75.66
2022-12-24T20:39:56.197Z,76.22
2022-12-24T20:47:55.990Z,78.24
2022-12-24T20:50:25.170Z,78.25
2022-12-24T20:52:55.151Z,77.90
2022-12-24T20:56:15.839Z,77.55
2022-12-24T20:58:59.973Z,77.95
2022-12-24T21:01:28.549Z,77.70
2022-12-24T21:03:56.828Z,77.53
2022-12-24T21:06:24.778Z,77.70
2022-12-24T21:08:52.847Z,77.93
2022-12-24T21:11:39.060Z,77.70
2022-12-24T21:14:05.864Z,78.52
2022-12-24T21:16:33.865Z,77.82
2022-12-24T21:19:00.651Z,76.69
2022-12-24T21:21:27.582Z,76.10
2022-12-24T21:23:54.156Z,76.69
2022-12-24T21:26:20.823Z,76.17
2022-12-24T21:28:47.566Z,75.91
2022-12-24T21:31:15.193Z,75.83
2022-12-24T21:33:42.426Z,76.55
2022-12-24T21:36:11.888Z,76.77
2022-12-24T21:38:38.903Z,76.19
2022-12-24T21:41:13.767Z,76.10
2022-12-24T21:43:40.913Z,75.90
2022-12-24T21:46:17.627Z,76.20
2022-12-24T21:49:05.766Z,76.27
2022-12-24T21:51:32.858Z,76.62
2022-12-24T21:54:18.555Z,77.22
2022-12-24T21:57:03.929Z,76.80
2022-12-24T21:59:30.603Z,76.46
2022-12-24T22:01:58.688Z,76.14
2022-12-24T22:04:26.094Z,77.05
2022-12-24T22:07:11.197Z,76.29
2022-12-24T22:09:57.762Z,77.05
2022-12-24T22:12:25.285Z,79.17
2022-12-24T22:14:52.068Z,79.78
2022-12-24T22:17:24.721Z,79.19
2022-12-24T22:19:52.007Z,79.07
2022-12-24T22:22:18.569Z,78.32
2022-12-24T22:24:45.183Z,79.05
2022-12-24T22:27:11.723Z,78.96
2022-12-24T22:29:38.296Z,78.70
2022-12-24T22:32:05.144Z,78.57
2022-12-24T22:34:32.842Z,78.83
2022-12-24T22:36:59.456Z,79.38
2022-12-24T22:39:26.100Z,78.63
2022-12-24T22:41:57.933Z,78.21
2022-12-24T22:44:24.851Z,78.29
2022-12-24T22:46:51.473Z,78.26
2022-12-24T22:49:18.031Z,78.59
2022-12-24T22:51:44.601Z,77.27
2022-12-24T22:54:11.605Z,77.66
2022-12-24T22:56:41.300Z,78.26
2022-12-24T23:28:07.546Z,77.87
2022-12-24T23:30:34.234Z,79.11
2022-12-24T23:33:00.860Z,78.05
2022-12-24T23:35:27.494Z,78.31
2022-12-24T23:37:54.075Z,78.20
2022-12-24T23:40:20.655Z,77.74
2022-12-24T23:42:47.217Z,77.93
2022-12-24T23:45:13.924Z,78.01
2022-12-24T23:48:02.314Z,77.61
2022-12-24T23:50:29.284Z,77.51
2022-12-24T23:52:55.863Z,77.47
2022-12-24T23:55:22.440Z,79.16
2022-12-24T23:57:48.978Z,77.63
